Terminal Aerodrome Forecast
Issued by NWS Grand Rapids, MI

Home | Current Version | Previous Version | Text Only | Print | Product List | Glossary On
Versions: 1 2 3 4 5 6 7 8 9 10 11 12 13 14 15 16 17 18 19
000
FTUS43 KGRR 041100
TAFGRR
TAF
KGRR 041124Z 0412/0512 17009KT P6SM FEW030 BKN090 OVC190
     FM041500 26009KT P6SM BKN025
     FM041700 29010KT P6SM SCT035 BKN120 BKN250
     FM042000 35008KT P6SM SCT050 BKN250
     FM050600 06006KT P6SM OVC100
     FM051000 09010KT 5SM -RA BR OVC060=

USA.gov is the U.S. government's official web portal to all federal, state and local government web resources and services.